createdAt,value
2018-07-09T00:01:57.677Z,3.17
2018-07-09T00:04:28.738Z,2.83
2018-07-09T00:07:00.025Z,2.97
2018-07-09T00:09:31.305Z,3.10
2018-07-09T00:12:02.478Z,3.07
2018-07-09T00:14:33.479Z,3.00
2018-07-09T00:17:04.874Z,3.17
2018-07-09T00:19:35.799Z,3.50
2018-07-09T00:22:08.564Z,3.23
2018-07-09T00:24:39.506Z,3.10
2018-07-09T00:27:10.534Z,2.93
2018-07-09T00:29:41.546Z,3.20
2018-07-09T00:32:12.594Z,3.30
2018-07-09T00:34:44.336Z,3.17
2018-07-09T00:37:15.486Z,3.00
2018-07-09T00:39:46.404Z,2.77
2018-07-09T00:42:17.724Z,3.37
2018-07-09T00:44:48.712Z,3.37
2018-07-09T00:47:19.870Z,3.23
2018-07-09T00:49:51.293Z,2.67
2018-07-09T00:52:24.334Z,3.10
2018-07-09T00:54:55.630Z,3.10
2018-07-09T01:00:06.565Z,3.13
2018-07-09T01:02:37.675Z,3.33
2018-07-09T01:05:09.071Z,3.37
2018-07-09T01:07:40.224Z,3.77
2018-07-09T01:10:12.664Z,3.60
2018-07-09T01:12:43.581Z,4.53
2018-07-09T01:15:14.566Z,5.10
2018-07-09T01:17:46.206Z,3.77
2018-07-09T01:20:17.651Z,3.77
2018-07-09T01:22:49.363Z,3.67
2018-07-09T01:25:23.125Z,3.67
2018-07-09T01:27:54.065Z,3.50
2018-07-09T01:30:25.960Z,3.50
2018-07-09T01:32:57.012Z,3.60
2018-07-09T01:35:28.302Z,3.77
2018-07-09T01:37:59.340Z,3.30
2018-07-09T01:40:30.228Z,4.03
2018-07-09T01:43:01.703Z,3.70
2018-07-09T01:45:32.535Z,4.10
2018-07-09T01:48:03.700Z,3.47
2018-07-09T01:50:34.671Z,3.50
2018-07-09T01:53:06.501Z,3.63
2018-07-09T01:55:38.051Z,4.00
2018-07-09T01:58:09.047Z,3.77
2018-07-09T02:00:41.631Z,3.80
2018-07-09T02:03:12.661Z,3.67
2018-07-09T02:05:43.907Z,4.33
2018-07-09T02:08:16.354Z,4.10
2018-07-09T02:10:47.558Z,3.40
2018-07-09T02:13:17.700Z,4.60
2018-07-09T02:15:49.025Z,4.57
2018-07-09T02:18:19.913Z,3.90
2018-07-09T02:20:51.005Z,3.90
2018-07-09T02:23:21.960Z,3.80
2018-07-09T02:25:52.735Z,3.60
2018-07-09T02:28:24.526Z,3.63
2018-07-09T02:30:55.881Z,3.80
2018-07-09T02:33:26.950Z,3.70
2018-07-09T02:35:57.928Z,4.13
2018-07-09T02:38:28.953Z,4.17
2018-07-09T02:41:00.032Z,4.10
2018-07-09T02:43:31.275Z,4.70
2018-07-09T02:46:02.970Z,3.80
2018-07-09T02:48:34.011Z,4.40
2018-07-09T02:51:05.052Z,4.10
2018-07-09T02:53:35.999Z,4.17
2018-07-09T02:56:08.121Z,4.33
2018-07-09T02:58:39.519Z,4.27
2018-07-09T03:01:10.643Z,4.97
2018-07-09T03:03:41.598Z,4.93
2018-07-09T03:06:12.545Z,4.40
2018-07-09T03:08:43.650Z,4.13
2018-07-09T03:11:14.882Z,4.27
2018-07-09T03:13:45.910Z,4.70
2018-07-09T03:16:17.085Z,4.80
2018-07-09T03:18:48.250Z,4.77
2018-07-09T03:21:19.689Z,5.50
2018-07-09T03:23:50.914Z,4.60
2018-07-09T03:26:22.454Z,5.57
2018-07-09T03:28:54.255Z,5.17
2018-07-09T03:31:25.058Z,4.67
2018-07-09T03:33:56.676Z,6.70
2018-07-09T03:36:27.849Z,4.80
2018-07-09T03:38:59.195Z,6.50
2018-07-09T03:41:30.551Z,5.63
2018-07-09T03:44:01.869Z,5.57
2018-07-09T03:46:32.850Z,5.13
2018-07-09T03:49:03.878Z,6.10
2018-07-09T03:51:34.706Z,5.20
2018-07-09T03:54:06.228Z,4.60
2018-07-09T03:56:37.221Z,4.90
2018-07-09T03:59:08.016Z,4.97
2018-07-09T04:01:38.978Z,5.40
2018-07-09T04:04:10.052Z,5.90
2018-07-09T04:06:41.174Z,5.80
2018-07-09T04:09:14.111Z,6.13
2018-07-09T04:11:44.894Z,5.17
2018-07-09T04:14:15.860Z,4.90
2018-07-09T04:16:46.780Z,5.50
2018-07-09T04:19:17.678Z,5.67
2018-07-09T04:21:48.621Z,5.33
2018-07-09T04:24:19.922Z,5.67
2018-07-09T04:26:50.828Z,6.37
2018-07-09T04:29:22.442Z,6.10
2018-07-09T04:31:53.510Z,7.40
2018-07-09T04:34:24.817Z,7.30
2018-07-09T04:36:57.365Z,7.30
2018-07-09T04:39:27.624Z,7.50
2018-07-09T04:41:58.828Z,6.57
2018-07-09T04:44:32.634Z,7.97
2018-07-09T04:47:06.868Z,7.70
2018-07-09T04:49:41.001Z,8.23
2018-07-09T04:52:11.408Z,7.97
2018-07-09T04:54:42.502Z,7.37
2018-07-09T04:57:13.574Z,7.37
2018-07-09T04:59:44.554Z,7.60
2018-07-09T05:02:16.374Z,7.33
2018-07-09T05:04:48.130Z,7.70
2018-07-09T05:07:19.250Z,7.53
2018-07-09T05:09:50.358Z,8.80
2018-07-09T05:12:21.583Z,8.07
2018-07-09T05:14:52.552Z,7.50
2018-07-09T05:17:24.529Z,8.27
2018-07-09T05:19:56.167Z,8.30
2018-07-09T05:22:27.078Z,10.00
2018-07-09T05:24:58.154Z,10.20
2018-07-09T05:27:29.250Z,11.60
2018-07-09T05:30:00.904Z,10.20
2018-07-09T05:32:32.350Z,9.63
2018-07-09T05:35:03.914Z,10.53
2018-07-09T05:37:35.347Z,10.40
2018-07-09T05:40:07.263Z,9.43
2018-07-09T05:42:39.873Z,9.90
2018-07-09T05:45:11.958Z,9.33
2018-07-09T05:47:43.142Z,8.90
2018-07-09T05:50:14.931Z,8.63
2018-07-09T05:52:46.148Z,10.30
2018-07-09T05:55:17.621Z,9.07
2018-07-09T05:57:48.790Z,9.60
2018-07-09T06:00:21.408Z,9.70
2018-07-09T06:02:52.713Z,10.10
2018-07-09T06:05:24.121Z,9.20
2018-07-09T06:07:55.217Z,8.87
2018-07-09T06:10:26.798Z,9.33
2018-07-09T06:12:57.783Z,10.47
2018-07-09T06:15:29.226Z,8.77
2018-07-09T06:18:00.189Z,9.20
2018-07-09T06:20:31.237Z,9.13
2018-07-09T06:23:03.593Z,8.30
2018-07-09T06:25:34.801Z,10.13
2018-07-09T06:28:07.010Z,9.50
2018-07-09T06:30:38.141Z,9.10
2018-07-09T06:33:09.944Z,8.30
2018-07-09T06:35:41.147Z,8.20
2018-07-09T06:38:11.913Z,8.80
2018-07-09T06:40:44.178Z,9.50
2018-07-09T06:43:15.075Z,8.70
2018-07-09T06:45:56.174Z,8.70
2018-07-09T06:48:27.276Z,8.30
2018-07-09T06:50:58.256Z,9.00
2018-07-09T06:53:29.443Z,8.00
2018-07-09T06:56:00.666Z,7.30
2018-07-09T06:58:32.114Z,7.83
2018-07-09T07:01:03.405Z,7.83
2018-07-09T07:03:35.966Z,7.77
2018-07-09T07:06:07.578Z,8.60
2018-07-09T07:08:39.684Z,7.60
2018-07-09T07:11:10.710Z,7.63
2018-07-09T07:13:44.007Z,7.57
2018-07-09T07:16:15.343Z,8.30
2018-07-09T07:18:46.785Z,7.03
2018-07-09T07:21:17.943Z,7.20
2018-07-09T07:23:49.139Z,8.20
2018-07-09T07:26:20.112Z,8.50
2018-07-09T07:28:51.566Z,8.60
2018-07-09T07:31:23.001Z,8.13
2018-07-09T07:33:54.036Z,7.90
2018-07-09T07:36:25.648Z,7.50
2018-07-09T07:38:56.951Z,8.93
2018-07-09T07:41:27.933Z,7.97
2018-07-09T07:43:59.335Z,7.63
2018-07-09T07:46:30.266Z,7.33
2018-07-09T07:49:01.745Z,7.73
2018-07-09T07:51:32.918Z,7.80
2018-07-09T07:54:04.083Z,7.60
2018-07-09T07:56:35.371Z,7.77
2018-07-09T07:59:07.855Z,7.27
2018-07-09T08:01:38.880Z,6.83
2018-07-09T08:04:10.014Z,6.60
2018-07-09T08:06:41.891Z,7.43
2018-07-09T08:09:12.317Z,6.93
2018-07-09T08:11:48.562Z,7.50
2018-07-09T08:14:14.140Z,7.07
2018-07-09T08:16:45.424Z,6.03
2018-07-09T08:19:17.718Z,6.30
2018-07-09T08:21:49.233Z,6.63
2018-07-09T08:24:20.410Z,6.40
2018-07-09T08:26:51.315Z,6.70
2018-07-09T08:29:22.495Z,7.17
2018-07-09T08:31:53.635Z,6.33
2018-07-09T08:34:24.681Z,6.57
2018-07-09T08:36:56.584Z,6.60
2018-07-09T08:39:27.723Z,7.50
2018-07-09T08:41:59.118Z,8.27
2018-07-09T08:44:30.446Z,8.80
2018-07-09T08:47:01.496Z,8.23
2018-07-09T08:49:33.722Z,7.70
2018-07-09T08:52:05.014Z,7.77
2018-07-09T08:54:36.228Z,8.57
2018-07-09T08:57:07.551Z,8.23
2018-07-09T08:59:39.437Z,7.90
2018-07-09T09:02:11.663Z,7.10
2018-07-09T09:04:43.290Z,8.00
2018-07-09T09:07:14.187Z,7.47
2018-07-09T09:09:45.379Z,7.90
2018-07-09T09:12:16.212Z,8.93
2018-07-09T09:14:47.852Z,10.97
2018-07-09T09:17:18.839Z,7.80
2018-07-09T09:19:51.554Z,7.30
2018-07-09T09:22:23.022Z,7.40
2018-07-09T09:24:54.369Z,7.30
2018-07-09T09:27:26.255Z,7.30
2018-07-09T09:29:56.478Z,6.27
2018-07-09T09:32:27.449Z,5.40
2018-07-09T09:34:58.522Z,5.70
2018-07-09T09:37:30.363Z,6.07
2018-07-09T09:40:02.312Z,5.50
2018-07-09T09:42:33.624Z,6.90
2018-07-09T09:45:05.014Z,6.07
2018-07-09T09:47:38.424Z,6.10
2018-07-09T09:50:10.406Z,6.20
2018-07-09T09:52:41.545Z,5.87
2018-07-09T09:55:12.531Z,8.13
2018-07-09T09:57:43.894Z,7.53
2018-07-09T10:00:15.693Z,6.60
2018-07-09T10:02:48.087Z,6.33
2018-07-09T10:05:19.463Z,6.20
2018-07-09T10:07:51.028Z,6.40
2018-07-09T10:10:22.122Z,6.40
2018-07-09T10:12:53.378Z,7.07
2018-07-09T10:15:24.809Z,6.90
2018-07-09T10:17:56.484Z,6.53
2018-07-09T10:20:27.765Z,6.30
2018-07-09T10:22:58.915Z,7.37
2018-07-09T10:25:29.994Z,6.90
2018-07-09T10:28:01.909Z,6.80
2018-07-09T10:30:33.347Z,6.60
2018-07-09T10:33:04.739Z,6.77
2018-07-09T10:35:36.279Z,7.27
2018-07-09T10:38:07.626Z,6.63
2018-07-09T10:40:38.507Z,5.63
2018-07-09T10:43:10.166Z,6.53
2018-07-09T10:45:41.138Z,7.13
2018-07-09T10:48:12.313Z,7.37
2018-07-09T10:50:43.397Z,6.73
2018-07-09T10:53:17.078Z,6.50
2018-07-09T10:55:48.385Z,5.97
2018-07-09T10:58:20.030Z,6.60
2018-07-09T11:00:51.879Z,6.40
2018-07-09T11:03:23.059Z,5.60
2018-07-09T11:05:54.203Z,6.47
2018-07-09T11:08:26.688Z,7.43
2018-07-09T11:10:58.317Z,7.33
2018-07-09T11:13:30.032Z,6.00
2018-07-09T11:16:02.492Z,6.47
2018-07-09T11:18:33.186Z,6.60
2018-07-09T11:21:05.430Z,6.63
2018-07-09T11:23:36.770Z,6.40
2018-07-09T11:26:08.633Z,6.33
2018-07-09T11:28:39.465Z,5.83
2018-07-09T11:31:10.425Z,7.30
2018-07-09T11:33:42.226Z,6.33
2018-07-09T11:36:14.775Z,6.50
2018-07-09T11:38:45.966Z,5.87
2018-07-09T11:41:17.448Z,6.20
2018-07-09T11:43:48.719Z,6.13
2018-07-09T11:46:21.474Z,6.83
2018-07-09T11:48:52.586Z,6.10
2018-07-09T11:51:23.357Z,6.13
2018-07-09T11:53:54.367Z,5.40
2018-07-09T11:56:25.951Z,5.63
2018-07-09T11:58:57.395Z,5.20
2018-07-09T12:01:30.363Z,5.60
2018-07-09T12:04:02.541Z,5.10
2018-07-09T12:06:33.583Z,5.10
2018-07-09T12:09:05.728Z,5.27
2018-07-09T12:11:36.778Z,5.00
2018-07-09T12:14:08.828Z,5.43
2018-07-09T12:16:40.008Z,5.43
2018-07-09T12:19:11.119Z,5.23
2018-07-09T12:21:42.254Z,4.83
2018-07-09T12:24:12.801Z,5.00
2018-07-09T12:26:43.857Z,4.70
2018-07-09T12:29:14.921Z,4.03
2018-07-09T12:31:46.398Z,3.83
2018-07-09T12:34:17.581Z,3.50
2018-07-09T12:36:48.802Z,3.77
2018-07-09T12:39:20.196Z,3.90
2018-07-09T12:41:51.316Z,3.93
2018-07-09T12:44:22.810Z,3.83
2018-07-09T12:46:54.390Z,3.90
2018-07-09T12:49:25.974Z,3.67
2018-07-09T12:51:57.593Z,3.73
2018-07-09T12:54:28.324Z,3.73
2018-07-09T12:56:59.061Z,3.37
2018-07-09T12:59:30.634Z,2.93
2018-07-09T13:02:01.792Z,3.63
2018-07-09T13:04:33.347Z,3.50
2018-07-09T13:07:04.602Z,3.23
2018-07-09T13:09:35.695Z,3.00
2018-07-09T13:12:06.991Z,3.20
2018-07-09T13:14:38.717Z,3.10
2018-07-09T13:17:09.113Z,3.30
2018-07-09T13:19:41.646Z,2.77
2018-07-09T13:22:13.153Z,2.80
2018-07-09T13:24:43.497Z,2.77
2018-07-09T13:27:14.868Z,2.70
2018-07-09T13:29:46.308Z,2.40
2018-07-09T13:32:17.466Z,2.50
2018-07-09T13:34:49.825Z,2.60
2018-07-09T13:37:21.307Z,2.80
2018-07-09T13:39:53.534Z,2.87
2018-07-09T13:42:24.551Z,2.73
2018-07-09T13:44:55.778Z,2.70
2018-07-09T13:47:27.563Z,2.27
2018-07-09T13:50:00.279Z,2.57
2018-07-09T13:52:30.856Z,2.17
2018-07-09T13:55:02.225Z,2.50
2018-07-09T13:57:34.246Z,2.80
2018-07-09T14:00:06.458Z,2.80
2018-07-09T14:02:37.518Z,2.90
2018-07-09T14:05:08.330Z,2.67
2018-07-09T14:07:39.854Z,2.33
2018-07-09T14:10:11.505Z,2.50
2018-07-09T14:12:42.396Z,2.73
2018-07-09T14:15:14.190Z,2.90
2018-07-09T14:17:45.699Z,2.67
2018-07-09T14:20:33.691Z,2.53
2018-07-09T14:23:05.352Z,2.60
2018-07-09T14:25:36.852Z,2.73
2018-07-09T14:28:08.233Z,3.00
2018-07-09T14:30:39.435Z,2.97
2018-07-09T14:33:11.618Z,3.30
2018-07-09T14:35:42.240Z,2.97
2018-07-09T14:38:13.452Z,3.20
2018-07-09T14:40:45.097Z,3.20
2018-07-09T14:43:16.126Z,3.00
2018-07-09T14:45:47.221Z,3.00
2018-07-09T14:48:18.346Z,3.07
2018-07-09T14:50:49.989Z,3.13
2018-07-09T14:53:21.289Z,3.10
2018-07-09T14:55:52.718Z,2.90
2018-07-09T14:58:23.662Z,2.90
2018-07-09T15:00:55.088Z,2.83
2018-07-09T15:03:27.129Z,3.10
2018-07-09T15:05:59.218Z,3.00
2018-07-09T15:08:30.127Z,2.70
2018-07-09T15:11:00.309Z,2.90
2018-07-09T15:13:31.650Z,2.77
2018-07-09T15:16:03.058Z,3.37
2018-07-09T15:18:34.000Z,3.00
2018-07-09T15:21:05.389Z,2.57
2018-07-09T15:23:36.823Z,2.30
2018-07-09T15:26:08.870Z,2.50
2018-07-09T15:28:39.970Z,2.30
2018-07-09T15:31:12.486Z,2.30
2018-07-09T15:33:43.980Z,2.60
2018-07-09T15:36:15.234Z,2.33
2018-07-09T15:38:46.262Z,2.33
2018-07-09T15:41:17.281Z,2.70
2018-07-09T15:44:00.729Z,2.07
2018-07-09T15:46:31.297Z,2.13
2018-07-09T15:49:03.449Z,1.97
2018-07-09T15:51:34.773Z,1.90
2018-07-09T15:54:05.848Z,2.20
2018-07-09T15:56:37.382Z,2.47
2018-07-09T15:59:07.795Z,2.00
2018-07-09T16:01:38.783Z,2.27
2018-07-09T16:04:09.658Z,2.70
2018-07-09T16:06:41.024Z,2.60
2018-07-09T16:09:12.169Z,2.73
2018-07-09T16:11:43.078Z,2.20
2018-07-09T16:14:14.029Z,2.27
2018-07-09T16:16:45.516Z,1.90
2018-07-09T16:19:18.339Z,2.23
2018-07-09T16:21:49.925Z,2.10
2018-07-09T16:24:21.201Z,2.00
2018-07-09T16:26:52.450Z,2.10
2018-07-09T16:29:22.975Z,2.10
2018-07-09T16:31:54.326Z,2.17
2018-07-09T16:34:25.215Z,2.50
2018-07-09T16:36:56.500Z,2.60
2018-07-09T16:39:28.182Z,2.47
2018-07-09T16:41:59.442Z,2.27
2018-07-09T16:44:30.065Z,2.70
2018-07-09T16:47:00.938Z,2.33
2018-07-09T16:49:32.127Z,2.60
2018-07-09T16:52:03.899Z,2.90
2018-07-09T16:54:35.911Z,2.60
2018-07-09T16:57:06.914Z,2.30
2018-07-09T16:59:37.929Z,2.33
2018-07-09T17:02:09.674Z,3.33
2018-07-09T17:04:40.904Z,2.23
2018-07-09T17:07:11.906Z,2.67
2018-07-09T17:09:43.163Z,2.87
2018-07-09T17:12:14.435Z,3.07
2018-07-09T17:14:45.694Z,2.50
2018-07-09T17:17:17.700Z,2.70
2018-07-09T17:19:48.838Z,2.77
2018-07-09T17:22:20.096Z,3.20
2018-07-09T17:24:51.030Z,3.37
2018-07-09T17:27:22.253Z,2.90
2018-07-09T17:29:53.174Z,3.33
2018-07-09T17:32:25.094Z,3.70
2018-07-09T17:34:58.658Z,3.57
2018-07-09T17:37:29.710Z,3.67
2018-07-09T17:40:00.633Z,3.93
2018-07-09T17:42:31.786Z,3.30
2018-07-09T17:45:03.091Z,4.43
2018-07-09T17:47:34.338Z,3.40
2018-07-09T17:50:05.834Z,3.13
2018-07-09T17:52:37.001Z,3.50
2018-07-09T17:55:09.807Z,3.70
2018-07-09T17:57:41.306Z,3.33
2018-07-09T18:00:12.344Z,3.57
2018-07-09T18:02:43.028Z,3.10
2018-07-09T18:05:14.007Z,3.00
2018-07-09T18:07:45.073Z,2.67
2018-07-09T18:10:15.911Z,3.53
2018-07-09T18:12:47.640Z,3.20
2018-07-09T18:15:18.644Z,3.10
2018-07-09T18:17:49.747Z,3.60
2018-07-09T18:20:21.176Z,3.03
2018-07-09T18:22:52.102Z,3.40
2018-07-09T18:25:23.196Z,3.13
2018-07-09T18:27:54.710Z,3.33
2018-07-09T18:30:27.246Z,3.60
2018-07-09T18:32:58.499Z,3.50
2018-07-09T18:35:29.740Z,3.17
2018-07-09T18:38:04.072Z,3.10
2018-07-09T18:40:35.702Z,3.80
2018-07-09T18:43:13.904Z,3.60
2018-07-09T18:45:45.200Z,3.63
2018-07-09T18:48:16.316Z,2.90
2018-07-09T18:50:48.709Z,3.50
2018-07-09T18:53:19.695Z,3.60
2018-07-09T18:55:50.683Z,2.90
2018-07-09T18:58:22.385Z,2.80
2018-07-09T19:00:53.834Z,2.73
2018-07-09T19:03:25.224Z,2.80
2018-07-09T19:07:09.218Z,3.50
2018-07-09T19:09:41.284Z,2.93
2018-07-09T19:12:12.776Z,2.70
2018-07-09T19:14:45.399Z,2.80
2018-07-09T19:18:28.554Z,2.53
2018-07-09T19:21:31.972Z,3.00
2018-07-09T19:24:01.959Z,2.43
2018-07-09T19:26:31.303Z,3.53
2018-07-09T19:29:00.647Z,2.37
2018-07-09T19:31:30.242Z,2.83
2018-07-09T19:34:00.243Z,2.63
2018-07-09T19:36:31.466Z,2.70
2018-07-09T19:39:00.676Z,2.80
2018-07-09T19:41:30.072Z,3.03
2018-07-09T19:43:59.469Z,3.00
2018-07-09T19:46:29.995Z,2.60
2018-07-09T19:48:59.797Z,2.57
2018-07-09T19:51:30.374Z,3.13
2018-07-09T19:53:59.907Z,2.77
2018-07-09T19:56:31.497Z,2.67
2018-07-09T19:59:01.068Z,2.43
2018-07-09T20:01:30.872Z,2.53
2018-07-09T20:04:01.223Z,2.27
2018-07-09T20:06:31.998Z,2.33
2018-07-09T20:09:07.224Z,2.90
2018-07-09T20:11:43.127Z,2.40
2018-07-09T20:14:18.165Z,2.80
2018-07-09T20:16:52.452Z,2.60
2018-07-09T20:19:21.594Z,2.60
2018-07-09T20:21:50.704Z,2.80
2018-07-09T20:24:20.296Z,2.50
2018-07-09T20:26:49.786Z,2.50
2018-07-09T20:29:20.309Z,2.47
2018-07-09T20:31:49.937Z,2.93
2018-07-09T20:34:19.637Z,2.67
2018-07-09T20:36:49.747Z,2.60
2018-07-09T20:39:18.886Z,2.50
2018-07-09T20:41:47.957Z,2.57
2018-07-09T20:44:17.466Z,2.50
2018-07-09T20:46:46.775Z,2.57
2018-07-09T20:49:16.062Z,2.17
2018-07-09T20:51:47.841Z,2.37
2018-07-09T20:54:16.983Z,2.73
2018-07-09T20:56:46.505Z,2.87
2018-07-09T20:59:15.614Z,2.30
2018-07-09T21:01:45.197Z,2.70
2018-07-09T21:04:19.367Z,2.73
2018-07-09T21:06:49.090Z,2.70
2018-07-09T21:09:18.528Z,2.77
2018-07-09T21:11:47.676Z,2.50
2018-07-09T21:14:20.986Z,2.87
2018-07-09T21:16:50.072Z,2.97
2018-07-09T21:19:19.452Z,2.70
2018-07-09T21:21:48.845Z,2.67
2018-07-09T21:24:17.755Z,2.73
2018-07-09T21:26:46.952Z,2.80
2018-07-09T21:29:16.631Z,2.53
2018-07-09T21:31:45.737Z,2.43
2018-07-09T21:34:15.155Z,2.50
2018-07-09T21:36:44.898Z,2.53
2018-07-09T21:39:14.619Z,2.60
2018-07-09T21:41:43.860Z,2.80
2018-07-09T21:44:12.978Z,3.27
2018-07-09T21:46:42.489Z,3.20
2018-07-09T21:49:11.649Z,2.60
2018-07-09T21:51:41.525Z,2.70
2018-07-09T21:54:11.368Z,2.90
2018-07-09T21:56:40.782Z,2.83
2018-07-09T21:59:10.077Z,2.70
2018-07-09T22:01:39.558Z,2.77
2018-07-09T22:04:09.470Z,2.80
2018-07-09T22:06:38.591Z,2.30
2018-07-09T22:09:08.163Z,3.10
2018-07-09T22:11:37.527Z,2.50
2018-07-09T22:14:06.647Z,3.20
2018-07-09T22:16:35.725Z,2.80
2018-07-09T22:19:05.358Z,2.67
2018-07-09T22:21:34.683Z,2.77
2018-07-09T22:24:03.661Z,2.30
2018-07-09T22:26:43.771Z,2.47
2018-07-09T22:29:13.447Z,2.23
2018-07-09T22:31:44.789Z,2.63
2018-07-09T22:34:16.650Z,2.50
2018-07-09T22:36:47.533Z,2.77
2018-07-09T22:39:18.513Z,2.90
2018-07-09T22:41:50.226Z,2.67
2018-07-09T22:44:22.750Z,2.70
2018-07-09T22:46:54.014Z,2.70
2018-07-09T22:49:25.086Z,2.53
2018-07-09T22:51:56.593Z,2.87
2018-07-09T22:54:27.578Z,2.47
2018-07-09T22:56:58.938Z,3.00
2018-07-09T22:59:31.322Z,2.10
2018-07-09T23:02:02.264Z,3.07
2018-07-09T23:04:33.617Z,2.50
2018-07-09T23:07:04.926Z,2.77
2018-07-09T23:10:16.251Z,2.27
2018-07-09T23:13:25.025Z,1.93
2018-07-09T23:18:11.906Z,2.47
2018-07-09T23:22:55.299Z,2.73
2018-07-09T23:25:24.882Z,2.70
2018-07-09T23:27:54.138Z,2.10
2018-07-09T23:30:23.289Z,2.40
2018-07-09T23:32:53.928Z,2.40
2018-07-09T23:35:24.583Z,2.60
2018-07-09T23:37:53.920Z,2.83
2018-07-09T23:40:22.957Z,2.87
2018-07-09T23:42:52.529Z,2.73
2018-07-09T23:45:22.149Z,2.20
2018-07-09T23:47:51.837Z,2.13
2018-07-09T23:50:22.773Z,2.60
2018-07-09T23:52:53.358Z,2.43
2018-07-09T23:55:23.899Z,2.40
